Terminal Aerodrome Forecast
Issued by NWS

Home | Current Version | Previous Version | Text Only | Print | Product List | Glossary On
Versions: 1 2 3 4 5 6 7 8 9 10 11 12 13 14 15 16 17 18 19
333
FTAK31 PAJN 181138
TAFASI
TAF
PASI 181138Z 1812/1912 10006KT P6SM VCSH SCT025 OVC040
      TEMPO 1812/1814 4SM -SHRAPL BKN015 OVC025
     FM181400 09005KT P6SM VCSH SCT015 OVC050
     FM190000 07004KT P6SM BKN100=

USA.gov is the U.S. government's official web portal to all federal, state and local government web resources and services.